sensor_id;sensor_type;location;lat;lon;timestamp;pressure;altitude;pressure_sealevel;temperature;humidity
52777;BME280;38656;54.260;20.822;2023-10-31T00:01:54;99781.16;;;7.81;100.00
52777;BME280;38656;54.260;20.822;2023-10-31T00:04:21;99786.69;;;7.55;100.00
52777;BME280;38656;54.260;20.822;2023-10-31T00:06:47;99780.66;;;7.87;100.00
52777;BME280;38656;54.260;20.822;2023-10-31T00:09:14;99781.91;;;7.60;100.00
52777;BME280;38656;54.260;20.822;2023-10-31T00:11:42;99786.66;;;7.78;100.00
52777;BME280;38656;54.260;20.822;2023-10-31T00:14:09;99773.25;;;7.92;100.00
52777;BME280;38656;54.260;20.822;2023-10-31T00:16:35;99776.75;;;7.82;100.00
52777;BME280;38656;54.260;20.822;2023-10-31T00:19:01;99775.91;;;7.81;100.00
52777;BME280;38656;54.260;20.822;2023-10-31T00:21:27;99772.56;;;7.79;100.00
52777;BME280;38656;54.260;20.822;2023-10-31T00:23:53;99770.50;;;8.26;100.00
52777;BME280;38656;54.260;20.822;2023-10-31T00:26:19;99769.94;;;8.23;100.00
52777;BME280;38656;54.260;20.822;2023-10-31T00:28:46;99773.38;;;8.35;100.00
52777;BME280;38656;54.260;20.822;2023-10-31T00:31:12;99770.63;;;8.36;100.00
52777;BME280;38656;54.260;20.822;2023-10-31T00:33:39;99759.34;;;8.45;100.00
52777;BME280;38656;54.260;20.822;2023-10-31T00:36:05;99759.25;;;8.36;100.00
52777;BME280;38656;54.260;20.822;2023-10-31T00:38:32;99748.75;;;8.36;100.00
52777;BME280;38656;54.260;20.822;2023-10-31T00:40:58;99742.50;;;8.48;100.00
52777;BME280;38656;54.260;20.822;2023-10-31T00:43:24;99740.13;;;8.45;100.00
52777;BME280;38656;54.260;20.822;2023-10-31T00:45:51;99743.41;;;8.58;100.00
52777;BME280;38656;54.260;20.822;2023-10-31T00:48:17;99743.44;;;8.68;100.00
52777;BME280;38656;54.260;20.822;2023-10-31T00:50:44;99732.72;;;8.81;100.00
52777;BME280;38656;54.260;20.822;2023-10-31T00:53:10;99733.03;;;8.88;100.00
52777;BME280;38656;54.260;20.822;2023-10-31T00:55:36;99732.03;;;9.10;100.00
52777;BME280;38656;54.260;20.822;2023-10-31T00:58:03;99729.84;;;9.15;100.00
52777;BME280;38656;54.260;20.822;2023-10-31T01:00:29;99721.28;;;9.23;100.00
52777;BME280;38656;54.260;20.822;2023-10-31T01:02:56;99723.00;;;9.33;100.00
52777;BME280;38656;54.260;20.822;2023-10-31T01:05:22;99720.50;;;9.42;100.00
52777;BME280;38656;54.260;20.822;2023-10-31T01:07:48;99710.00;;;9.51;100.00
52777;BME280;38656;54.260;20.822;2023-10-31T01:10:15;99705.03;;;9.58;100.00
52777;BME280;38656;54.260;20.822;2023-10-31T01:12:41;99704.75;;;9.71;100.00
52777;BME280;38656;54.260;20.822;2023-10-31T01:15:07;99712.16;;;9.77;100.00
52777;BME280;38656;54.260;20.822;2023-10-31T01:17:34;99704.25;;;9.87;100.00
52777;BME280;38656;54.260;20.822;2023-10-31T01:20:00;99710.34;;;10.07;100.00
52777;BME280;38656;54.260;20.822;2023-10-31T01:22:26;99705.91;;;10.17;100.00
52777;BME280;38656;54.260;20.822;2023-10-31T01:24:52;99695.19;;;10.58;100.00
52777;BME280;38656;54.260;20.822;2023-10-31T01:27:18;99694.63;;;10.64;100.00
52777;BME280;38656;54.260;20.822;2023-10-31T01:29:45;99690.78;;;10.49;100.00
52777;BME280;38656;54.260;20.822;2023-10-31T01:32:11;99677.28;;;10.32;100.00
52777;BME280;38656;54.260;20.822;2023-10-31T01:34:38;99678.97;;;10.43;100.00
52777;BME280;38656;54.260;20.822;2023-10-31T01:37:04;99670.63;;;10.48;100.00
52777;BME280;38656;54.260;20.822;2023-10-31T01:39:30;99664.19;;;10.70;100.00
52777;BME280;38656;54.260;20.822;2023-10-31T01:41:56;99653.31;;;10.83;100.00
52777;BME280;38656;54.260;20.822;2023-10-31T01:44:23;99661.09;;;10.84;100.00
52777;BME280;38656;54.260;20.822;2023-10-31T01:46:49;99643.03;;;10.79;100.00
52777;BME280;38656;54.260;20.822;2023-10-31T01:49:15;99637.28;;;10.94;100.00
52777;BME280;38656;54.260;20.822;2023-10-31T01:51:42;99632.09;;;11.02;100.00
52777;BME280;38656;54.260;20.822;2023-10-31T01:54:10;99631.91;;;10.86;100.00
52777;BME280;38656;54.260;20.822;2023-10-31T01:56:36;99620.44;;;10.95;100.00
52777;BME280;38656;54.260;20.822;2023-10-31T01:59:05;99632.94;;;10.93;100.00
52777;BME280;38656;54.260;20.822;2023-10-31T02:01:34;99622.38;;;10.93;100.00
52777;BME280;38656;54.260;20.822;2023-10-31T02:04:02;99619.66;;;10.85;100.00
52777;BME280;38656;54.260;20.822;2023-10-31T02:06:28;99605.47;;;11.13;100.00
52777;BME280;38656;54.260;20.822;2023-10-31T02:08:56;99593.69;;;11.08;100.00
52777;BME280;38656;54.260;20.822;2023-10-31T02:11:23;99597.94;;;11.19;100.00
52777;BME280;38656;54.260;20.822;2023-10-31T02:13:49;99582.25;;;11.17;100.00
52777;BME280;38656;54.260;20.822;2023-10-31T02:16:15;99582.81;;;11.11;100.00
52777;BME280;38656;54.260;20.822;2023-10-31T02:18:42;99579.34;;;11.10;100.00
52777;BME280;38656;54.260;20.822;2023-10-31T02:21:08;99571.59;;;11.27;100.00
52777;BME280;38656;54.260;20.822;2023-10-31T02:23:34;99565.09;;;11.21;100.00
52777;BME280;38656;54.260;20.822;2023-10-31T02:26:00;99566.91;;;11.21;100.00
52777;BME280;38656;54.260;20.822;2023-10-31T02:28:26;99562.53;;;11.11;100.00
52777;BME280;38656;54.260;20.822;2023-10-31T02:30:54;99555.25;;;11.13;100.00
52777;BME280;38656;54.260;20.822;2023-10-31T02:33:23;99549.91;;;11.05;100.00
52777;BME280;38656;54.260;20.822;2023-10-31T02:35:49;99553.66;;;11.03;100.00
52777;BME280;38656;54.260;20.822;2023-10-31T02:38:15;99540.22;;;11.14;100.00
52777;BME280;38656;54.260;20.822;2023-10-31T02:40:42;99525.53;;;11.11;100.00
52777;BME280;38656;54.260;20.822;2023-10-31T02:43:08;99519.19;;;11.04;100.00
52777;BME280;38656;54.260;20.822;2023-10-31T02:45:34;99510.28;;;11.05;100.00
52777;BME280;38656;54.260;20.822;2023-10-31T02:48:00;99503.94;;;10.98;100.00
52777;BME280;38656;54.260;20.822;2023-10-31T02:50:26;99496.63;;;11.10;100.00
52777;BME280;38656;54.260;20.822;2023-10-31T02:52:53;99492.47;;;11.07;100.00
52777;BME280;38656;54.260;20.822;2023-10-31T02:55:19;99487.13;;;10.99;100.00
52777;BME280;38656;54.260;20.822;2023-10-31T02:57:45;99480.31;;;10.96;100.00
52777;BME280;38656;54.260;20.822;2023-10-31T03:00:11;99487.56;;;10.94;100.00
52777;BME280;38656;54.260;20.822;2023-10-31T03:02:38;99483.22;;;10.75;100.00
52777;BME280;38656;54.260;20.822;2023-10-31T03:05:04;99482.28;;;10.94;100.00
52777;BME280;38656;54.260;20.822;2023-10-31T03:07:30;99477.50;;;10.98;100.00
52777;BME280;38656;54.260;20.822;2023-10-31T03:09:56;99469.03;;;11.12;100.00
52777;BME280;38656;54.260;20.822;2023-10-31T03:12:23;99462.78;;;11.31;100.00
52777;BME280;38656;54.260;20.822;2023-10-31T03:14:50;99455.00;;;11.30;100.00
52777;BME280;38656;54.260;20.822;2023-10-31T03:17:16;99446.25;;;11.29;100.00
52777;BME280;38656;54.260;20.822;2023-10-31T03:19:45;99439.94;;;11.04;100.00
52777;BME280;38656;54.260;20.822;2023-10-31T03:22:11;99433.06;;;11.11;100.00
52777;BME280;38656;54.260;20.822;2023-10-31T03:24:37;99422.53;;;11.20;100.00
52777;BME280;38656;54.260;20.822;2023-10-31T03:27:04;99414.25;;;11.14;100.00
52777;BME280;38656;54.260;20.822;2023-10-31T03:29:30;99408.34;;;11.21;100.00
52777;BME280;38656;54.260;20.822;2023-10-31T03:31:56;99410.03;;;11.22;100.00
52777;BME280;38656;54.260;20.822;2023-10-31T03:34:22;99407.06;;;11.25;100.00
52777;BME280;38656;54.260;20.822;2023-10-31T03:36:48;99396.44;;;11.16;100.00
52777;BME280;38656;54.260;20.822;2023-10-31T03:39:14;99383.59;;;11.22;100.00
52777;BME280;38656;54.260;20.822;2023-10-31T03:41:40;99381.97;;;11.29;100.00
52777;BME280;38656;54.260;20.822;2023-10-31T03:44:08;99394.19;;;11.04;100.00
52777;BME280;38656;54.260;20.822;2023-10-31T03:46:34;99395.06;;;11.12;100.00
52777;BME280;38656;54.260;20.822;2023-10-31T03:49:00;99385.03;;;11.16;100.00
52777;BME280;38656;54.260;20.822;2023-10-31T03:51:26;99373.97;;;11.39;100.00
52777;BME280;38656;54.260;20.822;2023-10-31T03:53:53;99372.09;;;11.31;100.00
52777;BME280;38656;54.260;20.822;2023-10-31T03:56:19;99361.22;;;11.34;100.00
52777;BME280;38656;54.260;20.822;2023-10-31T03:58:45;99357.97;;;11.48;100.00
52777;BME280;38656;54.260;20.822;2023-10-31T04:01:12;99355.09;;;11.60;100.00
52777;BME280;38656;54.260;20.822;2023-10-31T04:03:38;99356.41;;;11.29;100.00
52777;BME280;38656;54.260;20.822;2023-10-31T04:06:04;99353.81;;;11.72;100.00
52777;BME280;38656;54.260;20.822;2023-10-31T04:08:30;99341.94;;;11.42;100.00
52777;BME280;38656;54.260;20.822;2023-10-31T04:10:56;99331.28;;;11.60;100.00
52777;BME280;38656;54.260;20.822;2023-10-31T04:13:22;99321.50;;;11.52;100.00
52777;BME280;38656;54.260;20.822;2023-10-31T04:15:49;99311.25;;;11.92;100.00
52777;BME280;38656;54.260;20.822;2023-10-31T04:18:15;99281.63;;;11.80;100.00
52777;BME280;38656;54.260;20.822;2023-10-31T04:20:41;99293.66;;;11.74;100.00
52777;BME280;38656;54.260;20.822;2023-10-31T04:23:07;99295.94;;;11.61;100.00
52777;BME280;38656;54.260;20.822;2023-10-31T04:25:34;99278.09;;;11.71;100.00
52777;BME280;38656;54.260;20.822;2023-10-31T04:28:00;99285.22;;;11.62;100.00
52777;BME280;38656;54.260;20.822;2023-10-31T04:30:26;99292.50;;;11.68;100.00
52777;BME280;38656;54.260;20.822;2023-10-31T04:32:53;99276.84;;;11.83;100.00
52777;BME280;38656;54.260;20.822;2023-10-31T04:35:19;99273.81;;;11.70;100.00
52777;BME280;38656;54.260;20.822;2023-10-31T04:37:46;99261.91;;;11.74;100.00
52777;BME280;38656;54.260;20.822;2023-10-31T04:40:12;99263.31;;;11.86;100.00
52777;BME280;38656;54.260;20.822;2023-10-31T04:42:42;99259.25;;;11.66;100.00
52777;BME280;38656;54.260;20.822;2023-10-31T04:45:09;99268.81;;;11.59;100.00
52777;BME280;38656;54.260;20.822;2023-10-31T04:47:35;99267.19;;;11.58;100.00
52777;BME280;38656;54.260;20.822;2023-10-31T04:50:02;99256.28;;;11.61;100.00
52777;BME280;38656;54.260;20.822;2023-10-31T04:52:28;99247.72;;;11.75;100.00
52777;BME280;38656;54.260;20.822;2023-10-31T04:54:54;99248.38;;;11.69;100.00
52777;BME280;38656;54.260;20.822;2023-10-31T04:57:20;99252.28;;;11.57;100.00
52777;BME280;38656;54.260;20.822;2023-10-31T04:59:46;99249.16;;;11.61;100.00
52777;BME280;38656;54.260;20.822;2023-10-31T05:02:12;99234.16;;;11.70;100.00
52777;BME280;38656;54.260;20.822;2023-10-31T05:04:39;99234.47;;;11.67;100.00
52777;BME280;38656;54.260;20.822;2023-10-31T05:07:06;99238.16;;;11.82;100.00
52777;BME280;38656;54.260;20.822;2023-10-31T05:09:32;99225.22;;;11.71;100.00
52777;BME280;38656;54.260;20.822;2023-10-31T05:11:58;99224.50;;;11.52;100.00
52777;BME280;38656;54.260;20.822;2023-10-31T05:14:24;99220.56;;;11.57;100.00
52777;BME280;38656;54.260;20.822;2023-10-31T05:16:51;99216.84;;;11.76;100.00
52777;BME280;38656;54.260;20.822;2023-10-31T05:19:17;99209.38;;;11.87;100.00
52777;BME280;38656;54.260;20.822;2023-10-31T05:21:43;99206.81;;;11.96;100.00
52777;BME280;38656;54.260;20.822;2023-10-31T05:24:09;99207.66;;;11.54;100.00
52777;BME280;38656;54.260;20.822;2023-10-31T05:26:35;99207.84;;;11.60;100.00
52777;BME280;38656;54.260;20.822;2023-10-31T05:29:01;99210.69;;;11.67;100.00
52777;BME280;38656;54.260;20.822;2023-10-31T05:31:28;99195.50;;;11.77;100.00
52777;BME280;38656;54.260;20.822;2023-10-31T05:33:54;99182.84;;;11.97;100.00
52777;BME280;38656;54.260;20.822;2023-10-31T05:36:24;99175.06;;;12.12;100.00
52777;BME280;38656;54.260;20.822;2023-10-31T05:38:51;99176.72;;;12.05;100.00
52777;BME280;38656;54.260;20.822;2023-10-31T05:41:17;99171.44;;;11.97;100.00
52777;BME280;38656;54.260;20.822;2023-10-31T05:43:44;99164.81;;;11.93;100.00
52777;BME280;38656;54.260;20.822;2023-10-31T05:46:11;99162.50;;;12.06;100.00
52777;BME280;38656;54.260;20.822;2023-10-31T05:48:40;99148.53;;;11.71;100.00
52777;BME280;38656;54.260;20.822;2023-10-31T05:51:19;99143.31;;;12.12;100.00
52777;BME280;38656;54.260;20.822;2023-10-31T05:53:47;99140.28;;;11.91;100.00
52777;BME280;38656;54.260;20.822;2023-10-31T05:56:15;99146.28;;;12.01;100.00
52777;BME280;38656;54.260;20.822;2023-10-31T05:58:42;99149.91;;;11.83;100.00
52777;BME280;38656;54.260;20.822;2023-10-31T06:01:08;99136.34;;;11.95;100.00
52777;BME280;38656;54.260;20.822;2023-10-31T06:03:35;99125.44;;;11.98;100.00
52777;BME280;38656;54.260;20.822;2023-10-31T06:06:01;99125.13;;;12.01;100.00
52777;BME280;38656;54.260;20.822;2023-10-31T06:08:27;99113.19;;;12.13;100.00
52777;BME280;38656;54.260;20.822;2023-10-31T06:10:56;99107.28;;;12.03;100.00
52777;BME280;38656;54.260;20.822;2023-10-31T06:13:23;99097.31;;;12.13;100.00
52777;BME280;38656;54.260;20.822;2023-10-31T06:15:51;99092.38;;;12.10;100.00
52777;BME280;38656;54.260;20.822;2023-10-31T06:18:17;99086.59;;;12.07;100.00
52777;BME280;38656;54.260;20.822;2023-10-31T06:20:43;99080.47;;;12.23;100.00
52777;BME280;38656;54.260;20.822;2023-10-31T06:23:10;99074.84;;;12.09;100.00
52777;BME280;38656;54.260;20.822;2023-10-31T06:25:36;99071.16;;;12.35;100.00
52777;BME280;38656;54.260;20.822;2023-10-31T06:28:02;99065.25;;;12.08;100.00
52777;BME280;38656;54.260;20.822;2023-10-31T06:30:28;99058.56;;;12.45;100.00
52777;BME280;38656;54.260;20.822;2023-10-31T06:32:54;99048.31;;;12.42;100.00
52777;BME280;38656;54.260;20.822;2023-10-31T06:35:22;99060.78;;;12.17;100.00
52777;BME280;38656;54.260;20.822;2023-10-31T06:37:51;99056.81;;;12.77;100.00
52777;BME280;38656;54.260;20.822;2023-10-31T06:40:17;99046.91;;;12.71;100.00
52777;BME280;38656;54.260;20.822;2023-10-31T06:42:43;99039.31;;;12.60;100.00
52777;BME280;38656;54.260;20.822;2023-10-31T06:45:09;99035.03;;;12.59;100.00
52777;BME280;38656;54.260;20.822;2023-10-31T06:47:36;99033.66;;;12.63;100.00
52777;BME280;38656;54.260;20.822;2023-10-31T06:50:02;99030.03;;;12.64;100.00
52777;BME280;38656;54.260;20.822;2023-10-31T06:52:28;99032.25;;;12.83;100.00
52777;BME280;38656;54.260;20.822;2023-10-31T06:54:55;99021.09;;;12.65;100.00
52777;BME280;38656;54.260;20.822;2023-10-31T06:57:22;99013.06;;;12.50;100.00
52777;BME280;38656;54.260;20.822;2023-10-31T06:59:48;99017.03;;;12.46;100.00
52777;BME280;38656;54.260;20.822;2023-10-31T07:02:15;99002.94;;;12.53;100.00
52777;BME280;38656;54.260;20.822;2023-10-31T07:04:41;98999.97;;;12.48;100.00
52777;BME280;38656;54.260;20.822;2023-10-31T07:07:07;98989.06;;;12.51;100.00
52777;BME280;38656;54.260;20.822;2023-10-31T07:09:33;98996.03;;;12.44;100.00
52777;BME280;38656;54.260;20.822;2023-10-31T07:11:59;98990.03;;;12.59;100.00
52777;BME280;38656;54.260;20.822;2023-10-31T07:14:26;98982.72;;;12.61;100.00
52777;BME280;38656;54.260;20.822;2023-10-31T07:16:52;98965.06;;;12.76;100.00
52777;BME280;38656;54.260;20.822;2023-10-31T07:19:18;98967.44;;;12.71;100.00
52777;BME280;38656;54.260;20.822;2023-10-31T07:21:44;98972.47;;;12.57;100.00
52777;BME280;38656;54.260;20.822;2023-10-31T07:24:11;98974.88;;;12.99;100.00
52777;BME280;38656;54.260;20.822;2023-10-31T07:26:38;98966.13;;;12.67;100.00
52777;BME280;38656;54.260;20.822;2023-10-31T07:29:04;98966.50;;;12.87;100.00
52777;BME280;38656;54.260;20.822;2023-10-31T07:31:30;98968.63;;;12.91;100.00
52777;BME280;38656;54.260;20.822;2023-10-31T07:33:56;98954.88;;;13.19;100.00
52777;BME280;38656;54.260;20.822;2023-10-31T07:36:22;98950.41;;;13.43;100.00
52777;BME280;38656;54.260;20.822;2023-10-31T07:38:49;98934.16;;;13.61;100.00
52777;BME280;38656;54.260;20.822;2023-10-31T07:41:15;98928.13;;;14.12;100.00
52777;BME280;38656;54.260;20.822;2023-10-31T07:43:41;98944.44;;;13.79;100.00
52777;BME280;38656;54.260;20.822;2023-10-31T07:46:08;98936.19;;;13.89;100.00
52777;BME280;38656;54.260;20.822;2023-10-31T07:48:34;98929.78;;;14.13;100.00
52777;BME280;38656;54.260;20.822;2023-10-31T07:51:00;98940.03;;;14.16;100.00
52777;BME280;38656;54.260;20.822;2023-10-31T07:53:26;98930.03;;;13.20;100.00
52777;BME280;38656;54.260;20.822;2023-10-31T07:55:52;98910.66;;;14.03;100.00
52777;BME280;38656;54.260;20.822;2023-10-31T07:58:19;98901.13;;;14.23;100.00
52777;BME280;38656;54.260;20.822;2023-10-31T08:00:45;98891.75;;;14.42;100.00
52777;BME280;38656;54.260;20.822;2023-10-31T08:03:11;98876.31;;;14.52;100.00
52777;BME280;38656;54.260;20.822;2023-10-31T08:05:37;98888.06;;;14.07;100.00
52777;BME280;38656;54.260;20.822;2023-10-31T08:08:03;98878.19;;;13.71;100.00
52777;BME280;38656;54.260;20.822;2023-10-31T08:10:29;98870.47;;;14.06;100.00
52777;BME280;38656;54.260;20.822;2023-10-31T08:12:56;98857.66;;;14.24;100.00
52777;BME280;38656;54.260;20.822;2023-10-31T08:15:22;98849.81;;;14.38;100.00
52777;BME280;38656;54.260;20.822;2023-10-31T08:17:48;98847.59;;;14.78;100.00
52777;BME280;38656;54.260;20.822;2023-10-31T08:20:14;98858.75;;;14.66;100.00
52777;BME280;38656;54.260;20.822;2023-10-31T08:22:40;98854.19;;;14.82;100.00
52777;BME280;38656;54.260;20.822;2023-10-31T08:25:08;98849.75;;;14.89;100.00
52777;BME280;38656;54.260;20.822;2023-10-31T08:27:35;98852.22;;;14.54;100.00
52777;BME280;38656;54.260;20.822;2023-10-31T08:30:01;98844.31;;;14.76;100.00
52777;BME280;38656;54.260;20.822;2023-10-31T08:32:28;98842.41;;;14.91;100.00
52777;BME280;38656;54.260;20.822;2023-10-31T08:34:54;98840.28;;;15.36;100.00
52777;BME280;38656;54.260;20.822;2023-10-31T08:37:22;98839.56;;;15.21;100.00
52777;BME280;38656;54.260;20.822;2023-10-31T08:39:48;98837.53;;;15.23;100.00
52777;BME280;38656;54.260;20.822;2023-10-31T08:42:15;98833.78;;;15.46;100.00
52777;BME280;38656;54.260;20.822;2023-10-31T08:44:41;98836.94;;;15.28;100.00
52777;BME280;38656;54.260;20.822;2023-10-31T08:47:07;98827.44;;;15.12;100.00
52777;BME280;38656;54.260;20.822;2023-10-31T08:49:33;98826.38;;;15.34;100.00
52777;BME280;38656;54.260;20.822;2023-10-31T08:52:00;98818.09;;;15.57;100.00
52777;BME280;38656;54.260;20.822;2023-10-31T08:54:28;98810.25;;;15.78;100.00
52777;BME280;38656;54.260;20.822;2023-10-31T08:56:54;98804.59;;;15.52;100.00
52777;BME280;38656;54.260;20.822;2023-10-31T08:59:20;98796.72;;;16.34;100.00
52777;BME280;38656;54.260;20.822;2023-10-31T09:01:46;98793.13;;;15.93;100.00
52777;BME280;38656;54.260;20.822;2023-10-31T09:04:12;98789.91;;;16.12;100.00
52777;BME280;38656;54.260;20.822;2023-10-31T09:06:38;98778.28;;;16.33;100.00
52777;BME280;38656;54.260;20.822;2023-10-31T09:09:04;98766.75;;;16.12;100.00
52777;BME280;38656;54.260;20.822;2023-10-31T09:11:31;98767.00;;;16.37;100.00
52777;BME280;38656;54.260;20.822;2023-10-31T09:13:57;98757.56;;;16.35;100.00
52777;BME280;38656;54.260;20.822;2023-10-31T09:16:23;98761.94;;;17.03;100.00
52777;BME280;38656;54.260;20.822;2023-10-31T09:18:49;98764.53;;;17.29;100.00
52777;BME280;38656;54.260;20.822;2023-10-31T09:21:15;98765.22;;;16.85;100.00
52777;BME280;38656;54.260;20.822;2023-10-31T09:23:41;98771.16;;;17.13;100.00
52777;BME280;38656;54.260;20.822;2023-10-31T09:26:08;98762.53;;;16.78;100.00
52777;BME280;38656;54.260;20.822;2023-10-31T09:28:36;98750.22;;;16.57;100.00
52777;BME280;38656;54.260;20.822;2023-10-31T09:31:05;98749.03;;;16.93;100.00
52777;BME280;38656;54.260;20.822;2023-10-31T09:33:31;98731.38;;;16.92;100.00
52777;BME280;38656;54.260;20.822;2023-10-31T09:35:57;98743.88;;;17.05;100.00
52777;BME280;38656;54.260;20.822;2023-10-31T09:38:23;98732.59;;;16.62;100.00
52777;BME280;38656;54.260;20.822;2023-10-31T09:40:50;98731.97;;;17.07;100.00
52777;BME280;38656;54.260;20.822;2023-10-31T09:43:16;98720.91;;;17.69;100.00
52777;BME280;38656;54.260;20.822;2023-10-31T09:45:43;98735.75;;;17.51;100.00
52777;BME280;38656;54.260;20.822;2023-10-31T09:48:11;98731.78;;;17.02;100.00
52777;BME280;38656;54.260;20.822;2023-10-31T09:50:37;98739.97;;;17.14;100.00
52777;BME280;38656;54.260;20.822;2023-10-31T09:53:05;98721.56;;;17.58;100.00
52777;BME280;38656;54.260;20.822;2023-10-31T09:55:32;98732.94;;;17.26;100.00
52777;BME280;38656;54.260;20.822;2023-10-31T09:57:59;98726.66;;;17.66;100.00
52777;BME280;38656;54.260;20.822;2023-10-31T10:00:25;98737.78;;;17.56;100.00
52777;BME280;38656;54.260;20.822;2023-10-31T10:02:51;98720.78;;;17.96;100.00
52777;BME280;38656;54.260;20.822;2023-10-31T10:05:18;98719.75;;;17.97;100.00
52777;BME280;38656;54.260;20.822;2023-10-31T10:07:45;98711.72;;;17.51;100.00
52777;BME280;38656;54.260;20.822;2023-10-31T10:10:12;98707.09;;;17.27;100.00
52777;BME280;38656;54.260;20.822;2023-10-31T10:12:41;98712.03;;;17.23;100.00
52777;BME280;38656;54.260;20.822;2023-10-31T10:15:07;98698.84;;;17.35;100.00
52777;BME280;38656;54.260;20.822;2023-10-31T10:17:33;98702.59;;;17.21;100.00
52777;BME280;38656;54.260;20.822;2023-10-31T10:20:10;98693.84;;;17.52;100.00
52777;BME280;38656;54.260;20.822;2023-10-31T10:22:40;98697.91;;;17.09;100.00
52777;BME280;38656;54.260;20.822;2023-10-31T10:25:09;98697.47;;;17.26;100.00
52777;BME280;38656;54.260;20.822;2023-10-31T10:27:37;98682.56;;;16.91;100.00
52777;BME280;38656;54.260;20.822;2023-10-31T10:30:04;98701.41;;;17.03;100.00
52777;BME280;38656;54.260;20.822;2023-10-31T10:32:31;98688.59;;;17.32;100.00
52777;BME280;38656;54.260;20.822;2023-10-31T10:34:57;98692.72;;;17.34;100.00
52777;BME280;38656;54.260;20.822;2023-10-31T10:37:24;98691.91;;;17.21;100.00
52777;BME280;38656;54.260;20.822;2023-10-31T10:39:53;98695.84;;;17.11;100.00
52777;BME280;38656;54.260;20.822;2023-10-31T10:42:32;98685.44;;;16.83;100.00
52777;BME280;38656;54.260;20.822;2023-10-31T10:45:05;98706.25;;;17.33;100.00
52777;BME280;38656;54.260;20.822;2023-10-31T10:47:35;98692.41;;;17.04;100.00
52777;BME280;38656;54.260;20.822;2023-10-31T10:50:02;98689.91;;;17.09;100.00
52777;BME280;38656;54.260;20.822;2023-10-31T10:52:53;98687.63;;;17.20;100.00
52777;BME280;38656;54.260;20.822;2023-10-31T10:55:25;98684.16;;;17.12;100.00
52777;BME280;38656;54.260;20.822;2023-10-31T10:58:03;98685.03;;;16.73;100.00
52777;BME280;38656;54.260;20.822;2023-10-31T11:00:31;98679.28;;;16.69;100.00
52777;BME280;38656;54.260;20.822;2023-10-31T11:02:58;98682.38;;;16.73;100.00
52777;BME280;38656;54.260;20.822;2023-10-31T11:05:25;98694.44;;;16.75;100.00
52777;BME280;38656;54.260;20.822;2023-10-31T11:07:52;98678.88;;;16.59;100.00
52777;BME280;38656;54.260;20.822;2023-10-31T11:10:19;98681.72;;;16.84;100.00
52777;BME280;38656;54.260;20.822;2023-10-31T11:12:45;98667.59;;;16.77;100.00
52777;BME280;38656;54.260;20.822;2023-10-31T11:15:15;98692.03;;;16.47;100.00
52777;BME280;38656;54.260;20.822;2023-10-31T11:17:46;98687.91;;;16.11;100.00
52777;BME280;38656;54.260;20.822;2023-10-31T11:20:14;98682.97;;;16.15;100.00
52777;BME280;38656;54.260;20.822;2023-10-31T11:22:43;98698.91;;;15.88;100.00
52777;BME280;38656;54.260;20.822;2023-10-31T11:25:19;98698.38;;;15.51;100.00
52777;BME280;38656;54.260;20.822;2023-10-31T11:27:46;98682.47;;;15.64;100.00
52777;BME280;38656;54.260;20.822;2023-10-31T11:30:26;98693.38;;;15.83;100.00
52777;BME280;38656;54.260;20.822;2023-10-31T11:32:54;98695.91;;;15.56;100.00
52777;BME280;38656;54.260;20.822;2023-10-31T11:35:22;98699.06;;;15.25;100.00
52777;BME280;38656;54.260;20.822;2023-10-31T11:38:02;98689.25;;;15.25;100.00
52777;BME280;38656;54.260;20.822;2023-10-31T11:40:29;98690.19;;;15.59;100.00
52777;BME280;38656;54.260;20.822;2023-10-31T11:43:02;98694.66;;;15.45;100.00
52777;BME280;38656;54.260;20.822;2023-10-31T11:48:03;98685.97;;;15.23;100.00
52777;BME280;38656;54.260;20.822;2023-10-31T11:50:33;98692.06;;;15.17;100.00
52777;BME280;38656;54.260;20.822;2023-10-31T11:53:01;98672.13;;;15.41;100.00
52777;BME280;38656;54.260;20.822;2023-10-31T11:55:28;98673.25;;;15.18;100.00
52777;BME280;38656;54.260;20.822;2023-10-31T11:57:54;98668.94;;;15.11;100.00
52777;BME280;38656;54.260;20.822;2023-10-31T12:00:21;98668.00;;;15.32;100.00
52777;BME280;38656;54.260;20.822;2023-10-31T12:03:01;98674.59;;;15.43;100.00
52777;BME280;38656;54.260;20.822;2023-10-31T12:05:27;98673.34;;;15.38;100.00
52777;BME280;38656;54.260;20.822;2023-10-31T12:07:55;98661.53;;;15.48;100.00
52777;BME280;38656;54.260;20.822;2023-10-31T12:10:26;98658.94;;;15.19;100.00
52777;BME280;38656;54.260;20.822;2023-10-31T12:12:56;98665.13;;;15.27;100.00
52777;BME280;38656;54.260;20.822;2023-10-31T12:15:23;98655.13;;;15.35;100.00
52777;BME280;38656;54.260;20.822;2023-10-31T12:17:49;98658.47;;;15.02;100.00
52777;BME280;38656;54.260;20.822;2023-10-31T12:20:16;98662.56;;;15.05;100.00
52777;BME280;38656;54.260;20.822;2023-10-31T12:22:43;98660.63;;;15.27;100.00
52777;BME280;38656;54.260;20.822;2023-10-31T12:25:11;98665.00;;;17.74;100.00
52777;BME280;38656;54.260;20.822;2023-10-31T12:27:43;98667.81;;;16.08;100.00
52777;BME280;38656;54.260;20.822;2023-10-31T12:30:13;98665.84;;;15.55;100.00
52777;BME280;38656;54.260;20.822;2023-10-31T12:32:43;98666.59;;;15.43;100.00
52777;BME280;38656;54.260;20.822;2023-10-31T12:35:13;98675.75;;;15.27;100.00
52777;BME280;38656;54.260;20.822;2023-10-31T12:37:46;98668.91;;;15.59;100.00
52777;BME280;38656;54.260;20.822;2023-10-31T12:40:20;98667.38;;;15.30;100.00
52777;BME280;38656;54.260;20.822;2023-10-31T12:42:48;98670.06;;;15.36;100.00